sensor_id;sensor_type;location;lat;lon;timestamp;P1;durP1;ratioP1;P2;durP2;ratioP2
67140;SDS011;54058;52.010;5.546;2023-07-29T00:00:51;2.10;;;1.10;;
67140;SDS011;54058;52.010;5.546;2023-07-29T00:03:16;2.10;;;1.10;;
67140;SDS011;54058;52.010;5.546;2023-07-29T00:05:42;2.07;;;1.07;;
67140;SDS011;54058;52.010;5.546;2023-07-29T00:08:08;3.97;;;0.90;;
67140;SDS011;54058;52.010;5.546;2023-07-29T00:10:35;2.33;;;1.20;;
67140;SDS011;54058;52.010;5.546;2023-07-29T00:13:02;0.95;;;0.80;;
67140;SDS011;54058;52.010;5.546;2023-07-29T00:15:28;0.90;;;0.90;;
67140;SDS011;54058;52.010;5.546;2023-07-29T00:17:53;2.00;;;1.00;;
67140;SDS011;54058;52.010;5.546;2023-07-29T00:20:19;3.72;;;1.10;;
67140;SDS011;54058;52.010;5.546;2023-07-29T00:22:44;1.63;;;0.90;;
67140;SDS011;54058;52.010;5.546;2023-07-29T00:25:10;1.40;;;1.00;;
67140;SDS011;54058;52.010;5.546;2023-07-29T00:27:36;3.08;;;0.95;;
67140;SDS011;54058;52.010;5.546;2023-07-29T00:30:01;1.40;;;1.20;;
67140;SDS011;54058;52.010;5.546;2023-07-29T00:32:28;2.23;;;1.07;;
67140;SDS011;54058;52.010;5.546;2023-07-29T00:34:54;1.65;;;1.20;;
67140;SDS011;54058;52.010;5.546;2023-07-29T00:37:20;0.90;;;0.80;;
67140;SDS011;54058;52.010;5.546;2023-07-29T00:39:46;1.23;;;1.00;;
67140;SDS011;54058;52.010;5.546;2023-07-29T00:42:12;2.27;;;1.20;;
67140;SDS011;54058;52.010;5.546;2023-07-29T00:44:37;1.60;;;1.00;;
67140;SDS011;54058;52.010;5.546;2023-07-29T00:47:03;3.50;;;1.17;;
67140;SDS011;54058;52.010;5.546;2023-07-29T00:49:30;2.55;;;1.00;;
67140;SDS011;54058;52.010;5.546;2023-07-29T00:51:57;4.22;;;0.95;;
67140;SDS011;54058;52.010;5.546;2023-07-29T00:54:23;3.77;;;1.17;;
67140;SDS011;54058;52.010;5.546;2023-07-29T00:56:48;4.05;;;1.30;;
67140;SDS011;54058;52.010;5.546;2023-07-29T00:59:15;1.42;;;1.20;;
67140;SDS011;54058;52.010;5.546;2023-07-29T01:01:40;3.93;;;1.40;;
67140;SDS011;54058;52.010;5.546;2023-07-29T01:04:07;4.70;;;1.40;;
67140;SDS011;54058;52.010;5.546;2023-07-29T01:09:09;3.42;;;1.33;;
67140;SDS011;54058;52.010;5.546;2023-07-29T01:14:47;3.80;;;1.23;;
67140;SDS011;54058;52.010;5.546;2023-07-29T01:17:33;3.97;;;1.70;;
67140;SDS011;54058;52.010;5.546;2023-07-29T01:22:35;4.85;;;1.67;;
67140;SDS011;54058;52.010;5.546;2023-07-29T01:29:54;6.53;;;1.30;;
67140;SDS011;54058;52.010;5.546;2023-07-29T01:37:34;3.93;;;1.73;;
67140;SDS011;54058;52.010;5.546;2023-07-29T01:40:02;6.88;;;1.83;;
67140;SDS011;54058;52.010;5.546;2023-07-29T01:42:29;5.68;;;1.60;;
67140;SDS011;54058;52.010;5.546;2023-07-29T01:44:56;5.18;;;1.67;;
67140;SDS011;54058;52.010;5.546;2023-07-29T01:47:22;2.80;;;1.60;;
67140;SDS011;54058;52.010;5.546;2023-07-29T01:49:47;3.97;;;2.00;;
67140;SDS011;54058;52.010;5.546;2023-07-29T01:52:13;1.83;;;1.23;;
67140;SDS011;54058;52.010;5.546;2023-07-29T01:54:39;2.30;;;1.70;;
67140;SDS011;54058;52.010;5.546;2023-07-29T01:57:04;3.03;;;1.63;;
67140;SDS011;54058;52.010;5.546;2023-07-29T01:59:30;2.90;;;2.42;;
67140;SDS011;54058;52.010;5.546;2023-07-29T02:01:56;7.57;;;2.03;;
67140;SDS011;54058;52.010;5.546;2023-07-29T02:04:21;3.83;;;1.80;;
67140;SDS011;54058;52.010;5.546;2023-07-29T02:06:47;3.58;;;1.70;;
67140;SDS011;54058;52.010;5.546;2023-07-29T02:09:12;5.27;;;1.93;;
67140;SDS011;54058;52.010;5.546;2023-07-29T02:11:38;2.17;;;1.70;;
67140;SDS011;54058;52.010;5.546;2023-07-29T02:14:04;3.10;;;1.90;;
67140;SDS011;54058;52.010;5.546;2023-07-29T02:16:29;3.25;;;2.10;;
67140;SDS011;54058;52.010;5.546;2023-07-29T02:18:55;3.00;;;2.37;;
67140;SDS011;54058;52.010;5.546;2023-07-29T02:21:21;3.07;;;2.10;;
67140;SDS011;54058;52.010;5.546;2023-07-29T02:23:46;7.05;;;2.88;;
67140;SDS011;54058;52.010;5.546;2023-07-29T02:26:12;4.35;;;2.35;;
67140;SDS011;54058;52.010;5.546;2023-07-29T02:28:37;2.33;;;2.05;;
67140;SDS011;54058;52.010;5.546;2023-07-29T02:31:22;3.63;;;2.20;;
67140;SDS011;54058;52.010;5.546;2023-07-29T02:33:49;3.70;;;2.07;;
67140;SDS011;54058;52.010;5.546;2023-07-29T02:36:15;2.57;;;2.10;;
67140;SDS011;54058;52.010;5.546;2023-07-29T02:38:41;4.53;;;2.57;;
67140;SDS011;54058;52.010;5.546;2023-07-29T02:41:07;5.23;;;2.63;;
67140;SDS011;54058;52.010;5.546;2023-07-29T02:43:34;5.35;;;3.30;;
67140;SDS011;54058;52.010;5.546;2023-07-29T02:46:01;2.95;;;2.30;;
67140;SDS011;54058;52.010;5.546;2023-07-29T02:48:27;4.68;;;2.90;;
67140;SDS011;54058;52.010;5.546;2023-07-29T02:50:53;4.57;;;2.77;;
67140;SDS011;54058;52.010;5.546;2023-07-29T02:53:19;6.80;;;2.63;;
67140;SDS011;54058;52.010;5.546;2023-07-29T02:55:45;5.25;;;2.83;;
67140;SDS011;54058;52.010;5.546;2023-07-29T02:58:10;4.17;;;2.40;;
67140;SDS011;54058;52.010;5.546;2023-07-29T03:00:36;5.97;;;2.30;;
67140;SDS011;54058;52.010;5.546;2023-07-29T03:03:02;4.73;;;2.80;;
67140;SDS011;54058;52.010;5.546;2023-07-29T03:05:27;5.82;;;2.53;;
67140;SDS011;54058;52.010;5.546;2023-07-29T03:07:53;2.70;;;2.30;;
67140;SDS011;54058;52.010;5.546;2023-07-29T03:10:19;3.40;;;2.40;;
67140;SDS011;54058;52.010;5.546;2023-07-29T03:12:45;3.15;;;2.50;;
67140;SDS011;54058;52.010;5.546;2023-07-29T03:15:11;4.75;;;2.35;;
67140;SDS011;54058;52.010;5.546;2023-07-29T03:17:37;3.63;;;2.35;;
67140;SDS011;54058;52.010;5.546;2023-07-29T03:20:03;3.77;;;2.20;;
67140;SDS011;54058;52.010;5.546;2023-07-29T03:22:30;5.20;;;2.20;;
67140;SDS011;54058;52.010;5.546;2023-07-29T03:24:55;2.70;;;1.97;;
67140;SDS011;54058;52.010;5.546;2023-07-29T03:27:21;3.67;;;2.33;;
67140;SDS011;54058;52.010;5.546;2023-07-29T03:29:46;3.47;;;2.50;;
67140;SDS011;54058;52.010;5.546;2023-07-29T03:32:12;5.33;;;2.13;;
67140;SDS011;54058;52.010;5.546;2023-07-29T03:34:38;4.80;;;1.70;;
67140;SDS011;54058;52.010;5.546;2023-07-29T03:37:05;6.40;;;1.92;;
67140;SDS011;54058;52.010;5.546;2023-07-29T03:39:31;5.13;;;1.95;;
67140;SDS011;54058;52.010;5.546;2023-07-29T03:41:57;2.38;;;1.90;;
67140;SDS011;54058;52.010;5.546;2023-07-29T03:44:22;3.13;;;2.10;;
67140;SDS011;54058;52.010;5.546;2023-07-29T03:46:48;2.97;;;2.30;;
67140;SDS011;54058;52.010;5.546;2023-07-29T03:49:14;2.23;;;1.47;;
67140;SDS011;54058;52.010;5.546;2023-07-29T03:51:39;2.30;;;1.80;;
67140;SDS011;54058;52.010;5.546;2023-07-29T03:54:05;2.45;;;1.73;;
67140;SDS011;54058;52.010;5.546;2023-07-29T03:56:31;4.60;;;1.83;;
67140;SDS011;54058;52.010;5.546;2023-07-29T03:59:03;2.17;;;1.50;;
67140;SDS011;54058;52.010;5.546;2023-07-29T04:01:30;2.70;;;1.77;;
67140;SDS011;54058;52.010;5.546;2023-07-29T04:03:56;1.83;;;1.73;;
67140;SDS011;54058;52.010;5.546;2023-07-29T04:06:22;2.90;;;1.92;;
67140;SDS011;54058;52.010;5.546;2023-07-29T04:08:48;3.57;;;1.77;;
67140;SDS011;54058;52.010;5.546;2023-07-29T04:11:14;2.97;;;2.07;;
67140;SDS011;54058;52.010;5.546;2023-07-29T04:13:40;3.80;;;1.87;;
67140;SDS011;54058;52.010;5.546;2023-07-29T04:16:05;2.27;;;1.73;;
67140;SDS011;54058;52.010;5.546;2023-07-29T04:18:31;2.95;;;1.98;;
67140;SDS011;54058;52.010;5.546;2023-07-29T04:20:57;8.73;;;2.08;;
67140;SDS011;54058;52.010;5.546;2023-07-29T04:23:22;5.25;;;1.92;;
67140;SDS011;54058;52.010;5.546;2023-07-29T04:25:48;1.90;;;1.73;;
67140;SDS011;54058;52.010;5.546;2023-07-29T04:28:14;2.45;;;1.95;;
67140;SDS011;54058;52.010;5.546;2023-07-29T04:30:40;2.97;;;1.70;;
67140;SDS011;54058;52.010;5.546;2023-07-29T04:33:06;2.60;;;1.83;;
67140;SDS011;54058;52.010;5.546;2023-07-29T04:35:32;2.22;;;1.60;;
67140;SDS011;54058;52.010;5.546;2023-07-29T04:37:57;1.90;;;1.47;;
67140;SDS011;54058;52.010;5.546;2023-07-29T04:40:23;4.50;;;1.52;;
67140;SDS011;54058;52.010;5.546;2023-07-29T04:42:49;4.68;;;1.67;;
67140;SDS011;54058;52.010;5.546;2023-07-29T04:45:16;2.70;;;1.60;;
67140;SDS011;54058;52.010;5.546;2023-07-29T04:47:41;2.85;;;1.50;;
67140;SDS011;54058;52.010;5.546;2023-07-29T04:50:07;4.75;;;1.67;;
67140;SDS011;54058;52.010;5.546;2023-07-29T04:52:33;1.85;;;1.65;;
67140;SDS011;54058;52.010;5.546;2023-07-29T04:54:59;3.15;;;1.63;;
67140;SDS011;54058;52.010;5.546;2023-07-29T04:57:24;4.13;;;1.50;;
67140;SDS011;54058;52.010;5.546;2023-07-29T04:59:50;2.08;;;1.48;;
67140;SDS011;54058;52.010;5.546;2023-07-29T05:02:16;5.60;;;2.20;;
67140;SDS011;54058;52.010;5.546;2023-07-29T05:04:41;2.65;;;1.75;;
67140;SDS011;54058;52.010;5.546;2023-07-29T05:07:07;1.80;;;1.55;;
67140;SDS011;54058;52.010;5.546;2023-07-29T05:09:32;1.77;;;1.35;;
67140;SDS011;54058;52.010;5.546;2023-07-29T05:11:58;2.58;;;1.55;;
67140;SDS011;54058;52.010;5.546;2023-07-29T05:14:23;4.07;;;1.70;;
67140;SDS011;54058;52.010;5.546;2023-07-29T05:16:49;2.38;;;1.55;;
67140;SDS011;54058;52.010;5.546;2023-07-29T05:19:15;3.70;;;1.60;;
67140;SDS011;54058;52.010;5.546;2023-07-29T05:21:40;3.38;;;1.75;;
67140;SDS011;54058;52.010;5.546;2023-07-29T05:24:06;2.73;;;1.80;;
67140;SDS011;54058;52.010;5.546;2023-07-29T05:26:31;2.67;;;1.90;;
67140;SDS011;54058;52.010;5.546;2023-07-29T05:28:57;2.08;;;1.50;;
67140;SDS011;54058;52.010;5.546;2023-07-29T05:31:23;2.17;;;1.50;;
67140;SDS011;54058;52.010;5.546;2023-07-29T05:33:48;3.27;;;1.97;;
67140;SDS011;54058;52.010;5.546;2023-07-29T05:36:14;2.47;;;1.57;;
67140;SDS011;54058;52.010;5.546;2023-07-29T05:38:40;5.47;;;2.20;;
67140;SDS011;54058;52.010;5.546;2023-07-29T05:41:06;2.10;;;1.80;;
67140;SDS011;54058;52.010;5.546;2023-07-29T05:43:32;3.10;;;2.10;;
67140;SDS011;54058;52.010;5.546;2023-07-29T05:45:57;2.80;;;1.90;;
67140;SDS011;54058;52.010;5.546;2023-07-29T05:48:23;3.23;;;2.30;;
67140;SDS011;54058;52.010;5.546;2023-07-29T05:50:48;2.10;;;1.80;;
67140;SDS011;54058;52.010;5.546;2023-07-29T05:53:15;4.78;;;1.95;;
67140;SDS011;54058;52.010;5.546;2023-07-29T05:55:41;3.20;;;2.27;;
67140;SDS011;54058;52.010;5.546;2023-07-29T05:58:06;5.80;;;2.40;;
67140;SDS011;54058;52.010;5.546;2023-07-29T06:00:32;3.50;;;2.23;;
67140;SDS011;54058;52.010;5.546;2023-07-29T06:02:57;4.95;;;2.63;;
67140;SDS011;54058;52.010;5.546;2023-07-29T06:05:23;4.97;;;1.97;;
67140;SDS011;54058;52.010;5.546;2023-07-29T06:07:49;4.13;;;2.67;;
67140;SDS011;54058;52.010;5.546;2023-07-29T06:10:15;4.03;;;2.50;;
67140;SDS011;54058;52.010;5.546;2023-07-29T06:12:44;5.85;;;2.85;;
67140;SDS011;54058;52.010;5.546;2023-07-29T06:15:10;4.05;;;2.45;;
67140;SDS011;54058;52.010;5.546;2023-07-29T06:17:37;5.85;;;2.17;;
67140;SDS011;54058;52.010;5.546;2023-07-29T06:20:03;4.20;;;2.45;;
67140;SDS011;54058;52.010;5.546;2023-07-29T06:22:29;3.75;;;2.40;;
67140;SDS011;54058;52.010;5.546;2023-07-29T06:24:55;2.07;;;1.90;;
67140;SDS011;54058;52.010;5.546;2023-07-29T06:27:20;4.13;;;2.57;;
67140;SDS011;54058;52.010;5.546;2023-07-29T06:29:46;4.10;;;2.23;;
67140;SDS011;54058;52.010;5.546;2023-07-29T06:32:11;4.70;;;2.73;;
67140;SDS011;54058;52.010;5.546;2023-07-29T06:34:37;3.07;;;2.43;;
67140;SDS011;54058;52.010;5.546;2023-07-29T06:37:03;3.40;;;2.00;;
67140;SDS011;54058;52.010;5.546;2023-07-29T06:39:28;4.40;;;2.13;;
67140;SDS011;54058;52.010;5.546;2023-07-29T06:41:54;6.03;;;2.27;;
67140;SDS011;54058;52.010;5.546;2023-07-29T06:44:20;5.17;;;2.50;;
67140;SDS011;54058;52.010;5.546;2023-07-29T06:46:45;2.77;;;2.40;;
67140;SDS011;54058;52.010;5.546;2023-07-29T06:49:11;7.93;;;2.40;;
67140;SDS011;54058;52.010;5.546;2023-07-29T06:51:37;3.63;;;2.67;;
67140;SDS011;54058;52.010;5.546;2023-07-29T06:54:03;5.70;;;2.70;;
67140;SDS011;54058;52.010;5.546;2023-07-29T06:56:28;5.27;;;2.10;;
67140;SDS011;54058;52.010;5.546;2023-07-29T06:58:54;3.90;;;2.65;;
67140;SDS011;54058;52.010;5.546;2023-07-29T07:01:20;5.73;;;2.57;;
67140;SDS011;54058;52.010;5.546;2023-07-29T07:03:45;4.40;;;2.53;;
67140;SDS011;54058;52.010;5.546;2023-07-29T07:06:11;3.93;;;2.57;;
67140;SDS011;54058;52.010;5.546;2023-07-29T07:08:36;5.40;;;2.30;;
67140;SDS011;54058;52.010;5.546;2023-07-29T07:11:02;2.93;;;2.30;;
67140;SDS011;54058;52.010;5.546;2023-07-29T07:13:28;4.73;;;2.53;;
67140;SDS011;54058;52.010;5.546;2023-07-29T07:15:56;10.73;;;2.70;;
67140;SDS011;54058;52.010;5.546;2023-07-29T07:18:22;5.65;;;2.58;;
67140;SDS011;54058;52.010;5.546;2023-07-29T07:20:48;4.43;;;2.97;;
67140;SDS011;54058;52.010;5.546;2023-07-29T07:23:15;5.20;;;2.20;;
67140;SDS011;54058;52.010;5.546;2023-07-29T07:25:41;3.55;;;2.17;;
67140;SDS011;54058;52.010;5.546;2023-07-29T07:28:07;4.78;;;2.45;;
67140;SDS011;54058;52.010;5.546;2023-07-29T07:30:34;3.63;;;2.28;;
67140;SDS011;54058;52.010;5.546;2023-07-29T07:32:59;3.20;;;2.42;;
67140;SDS011;54058;52.010;5.546;2023-07-29T07:35:25;3.58;;;2.40;;
67140;SDS011;54058;52.010;5.546;2023-07-29T07:37:51;3.63;;;2.60;;
67140;SDS011;54058;52.010;5.546;2023-07-29T07:40:17;6.47;;;2.40;;
67140;SDS011;54058;52.010;5.546;2023-07-29T07:42:43;10.57;;;2.70;;
67140;SDS011;54058;52.010;5.546;2023-07-29T07:45:08;4.93;;;2.27;;
67140;SDS011;54058;52.010;5.546;2023-07-29T07:47:34;3.30;;;2.20;;
67140;SDS011;54058;52.010;5.546;2023-07-29T07:50:00;3.63;;;2.20;;
67140;SDS011;54058;52.010;5.546;2023-07-29T07:52:25;3.43;;;2.43;;
67140;SDS011;54058;52.010;5.546;2023-07-29T07:54:51;4.47;;;2.30;;
67140;SDS011;54058;52.010;5.546;2023-07-29T07:57:18;7.75;;;2.35;;
67140;SDS011;54058;52.010;5.546;2023-07-29T07:59:45;6.15;;;2.63;;
67140;SDS011;54058;52.010;5.546;2023-07-29T08:02:10;3.57;;;2.20;;
67140;SDS011;54058;52.010;5.546;2023-07-29T08:04:36;5.33;;;2.17;;
67140;SDS011;54058;52.010;5.546;2023-07-29T08:07:02;2.90;;;1.97;;
67140;SDS011;54058;52.010;5.546;2023-07-29T08:09:27;2.40;;;1.90;;
67140;SDS011;54058;52.010;5.546;2023-07-29T08:11:53;2.23;;;1.83;;
67140;SDS011;54058;52.010;5.546;2023-07-29T08:14:18;2.70;;;1.80;;
67140;SDS011;54058;52.010;5.546;2023-07-29T08:16:44;1.83;;;1.57;;
67140;SDS011;54058;52.010;5.546;2023-07-29T08:19:10;2.67;;;1.90;;
67140;SDS011;54058;52.010;5.546;2023-07-29T08:21:35;4.33;;;1.90;;
67140;SDS011;54058;52.010;5.546;2023-07-29T08:24:01;2.17;;;1.77;;
67140;SDS011;54058;52.010;5.546;2023-07-29T08:28:54;7.10;;;1.73;;
67140;SDS011;54058;52.010;5.546;2023-07-29T08:31:19;2.70;;;1.50;;
67140;SDS011;54058;52.010;5.546;2023-07-29T08:33:45;4.87;;;1.30;;
67140;SDS011;54058;52.010;5.546;2023-07-29T08:36:10;3.00;;;1.40;;
67140;SDS011;54058;52.010;5.546;2023-07-29T08:38:36;1.77;;;1.33;;
67140;SDS011;54058;52.010;5.546;2023-07-29T08:41:16;4.83;;;1.53;;
67140;SDS011;54058;52.010;5.546;2023-07-29T08:46:42;2.55;;;1.50;;
67140;SDS011;54058;52.010;5.546;2023-07-29T08:49:08;5.25;;;1.40;;
67140;SDS011;54058;52.010;5.546;2023-07-29T08:51:36;4.50;;;1.67;;
67140;SDS011;54058;52.010;5.546;2023-07-29T08:54:03;4.80;;;2.38;;
67140;SDS011;54058;52.010;5.546;2023-07-29T08:56:28;5.40;;;2.10;;
67140;SDS011;54058;52.010;5.546;2023-07-29T09:01:21;6.53;;;2.60;;
67140;SDS011;54058;52.010;5.546;2023-07-29T09:03:46;3.57;;;2.10;;
67140;SDS011;54058;52.010;5.546;2023-07-29T09:06:12;6.23;;;2.30;;
67140;SDS011;54058;52.010;5.546;2023-07-29T09:08:39;8.35;;;2.42;;
67140;SDS011;54058;52.010;5.546;2023-07-29T09:11:05;3.17;;;1.98;;
67140;SDS011;54058;52.010;5.546;2023-07-29T09:13:31;3.17;;;2.15;;
67140;SDS011;54058;52.010;5.546;2023-07-29T09:16:00;6.35;;;2.22;;
67140;SDS011;54058;52.010;5.546;2023-07-29T09:18:26;3.70;;;2.35;;
67140;SDS011;54058;52.010;5.546;2023-07-29T09:20:52;5.78;;;2.03;;
67140;SDS011;54058;52.010;5.546;2023-07-29T09:23:18;2.78;;;1.70;;
67140;SDS011;54058;52.010;5.546;2023-07-29T09:25:45;4.13;;;1.90;;
67140;SDS011;54058;52.010;5.546;2023-07-29T09:28:12;2.95;;;1.45;;
67140;SDS011;54058;52.010;5.546;2023-07-29T09:30:39;3.45;;;1.83;;
67140;SDS011;54058;52.010;5.546;2023-07-29T09:33:07;3.72;;;2.25;;
67140;SDS011;54058;52.010;5.546;2023-07-29T09:35:34;3.60;;;2.60;;
67140;SDS011;54058;52.010;5.546;2023-07-29T09:38:01;3.97;;;2.08;;
67140;SDS011;54058;52.010;5.546;2023-07-29T09:40:33;3.25;;;1.80;;
67140;SDS011;54058;52.010;5.546;2023-07-29T09:43:03;4.03;;;1.52;;
67140;SDS011;54058;52.010;5.546;2023-07-29T09:45:30;1.80;;;1.33;;
67140;SDS011;54058;52.010;5.546;2023-07-29T09:47:59;2.92;;;1.35;;
67140;SDS011;54058;52.010;5.546;2023-07-29T09:50:25;1.88;;;1.60;;
67140;SDS011;54058;52.010;5.546;2023-07-29T09:52:52;1.60;;;1.20;;
67140;SDS011;54058;52.010;5.546;2023-07-29T09:55:19;3.17;;;1.40;;
67140;SDS011;54058;52.010;5.546;2023-07-29T09:57:52;1.50;;;1.40;;
67140;SDS011;54058;52.010;5.546;2023-07-29T10:00:33;4.78;;;1.55;;
67140;SDS011;54058;52.010;5.546;2023-07-29T10:02:58;3.17;;;1.90;;
67140;SDS011;54058;52.010;5.546;2023-07-29T10:05:27;2.28;;;1.60;;
67140;SDS011;54058;52.010;5.546;2023-07-29T10:07:54;1.88;;;1.33;;
67140;SDS011;54058;52.010;5.546;2023-07-29T10:10:20;4.35;;;1.75;;
67140;SDS011;54058;52.010;5.546;2023-07-29T10:12:46;1.52;;;1.42;;
67140;SDS011;54058;52.010;5.546;2023-07-29T10:15:12;2.47;;;1.48;;
67140;SDS011;54058;52.010;5.546;2023-07-29T10:17:39;3.10;;;1.88;;
67140;SDS011;54058;52.010;5.546;2023-07-29T10:20:06;3.17;;;1.40;;
67140;SDS011;54058;52.010;5.546;2023-07-29T10:22:40;1.70;;;1.17;;
67140;SDS011;54058;52.010;5.546;2023-07-29T10:25:08;3.47;;;1.40;;
67140;SDS011;54058;52.010;5.546;2023-07-29T10:27:52;2.17;;;1.20;;
67140;SDS011;54058;52.010;5.546;2023-07-29T10:30:21;1.77;;;1.30;;
67140;SDS011;54058;52.010;5.546;2023-07-29T10:32:49;1.30;;;1.20;;
67140;SDS011;54058;52.010;5.546;2023-07-29T10:35:16;2.22;;;1.38;;
67140;SDS011;54058;52.010;5.546;2023-07-29T10:37:42;2.60;;;1.10;;
67140;SDS011;54058;52.010;5.546;2023-07-29T10:40:10;1.73;;;1.30;;
67140;SDS011;54058;52.010;5.546;2023-07-29T10:42:37;3.78;;;1.35;;
67140;SDS011;54058;52.010;5.546;2023-07-29T10:45:19;1.85;;;1.50;;
67140;SDS011;54058;52.010;5.546;2023-07-29T10:47:45;1.63;;;1.52;;
67140;SDS011;54058;52.010;5.546;2023-07-29T10:50:19;1.20;;;1.00;;
67140;SDS011;54058;52.010;5.546;2023-07-29T10:52:50;2.00;;;1.30;;
67140;SDS011;54058;52.010;5.546;2023-07-29T10:55:32;2.95;;;1.33;;
67140;SDS011;54058;52.010;5.546;2023-07-29T10:58:10;1.40;;;1.13;;
67140;SDS011;54058;52.010;5.546;2023-07-29T11:00:36;2.92;;;1.17;;
67140;SDS011;54058;52.010;5.546;2023-07-29T11:03:07;1.30;;;1.20;;
67140;SDS011;54058;52.010;5.546;2023-07-29T11:05:49;3.75;;;1.52;;
67140;SDS011;54058;52.010;5.546;2023-07-29T11:08:49;1.52;;;1.20;;
67140;SDS011;54058;52.010;5.546;2023-07-29T11:11:11;1.40;;;1.30;;
67140;SDS011;54058;52.010;5.546;2023-07-29T11:13:37;1.45;;;1.35;;
67140;SDS011;54058;52.010;5.546;2023-07-29T11:16:04;2.70;;;1.40;;
67140;SDS011;54058;52.010;5.546;2023-07-29T11:21:00;2.20;;;1.40;;
67140;SDS011;54058;52.010;5.546;2023-07-29T11:23:30;1.98;;;1.10;;
67140;SDS011;54058;52.010;5.546;2023-07-29T11:25:57;2.50;;;1.30;;
67140;SDS011;54058;52.010;5.546;2023-07-29T11:28:23;1.55;;;1.42;;
67140;SDS011;54058;52.010;5.546;2023-07-29T11:30:50;2.08;;;1.38;;
67140;SDS011;54058;52.010;5.546;2023-07-29T11:33:20;2.85;;;1.58;;
67140;SDS011;54058;52.010;5.546;2023-07-29T11:35:46;1.85;;;1.33;;
67140;SDS011;54058;52.010;5.546;2023-07-29T11:38:15;4.63;;;1.80;;
67140;SDS011;54058;52.010;5.546;2023-07-29T11:40:42;3.67;;;1.58;;
67140;SDS011;54058;52.010;5.546;2023-07-29T11:43:08;2.63;;;1.47;;
67140;SDS011;54058;52.010;5.546;2023-07-29T11:45:33;1.50;;;1.20;;
67140;SDS011;54058;52.010;5.546;2023-07-29T11:48:01;1.33;;;1.23;;
67140;SDS011;54058;52.010;5.546;2023-07-29T11:50:27;3.08;;;1.30;;
67140;SDS011;54058;52.010;5.546;2023-07-29T11:52:52;2.40;;;1.20;;
67140;SDS011;54058;52.010;5.546;2023-07-29T11:55:18;2.15;;;1.42;;
67140;SDS011;54058;52.010;5.546;2023-07-29T11:57:45;4.47;;;1.50;;
67140;SDS011;54058;52.010;5.546;2023-07-29T12:00:16;2.72;;;1.42;;
67140;SDS011;54058;52.010;5.546;2023-07-29T12:02:43;2.67;;;1.40;;
67140;SDS011;54058;52.010;5.546;2023-07-29T12:05:12;4.05;;;1.50;;
67140;SDS011;54058;52.010;5.546;2023-07-29T12:07:39;2.22;;;1.63;;
67140;SDS011;54058;52.010;5.546;2023-07-29T12:10:06;2.50;;;1.33;;
67140;SDS011;54058;52.010;5.546;2023-07-29T12:12:32;3.03;;;1.63;;
67140;SDS011;54058;52.010;5.546;2023-07-29T12:14:58;2.00;;;1.37;;
67140;SDS011;54058;52.010;5.546;2023-07-29T12:17:23;3.83;;;2.23;;
67140;SDS011;54058;52.010;5.546;2023-07-29T12:19:49;3.50;;;1.50;;
67140;SDS011;54058;52.010;5.546;2023-07-29T12:22:19;2.97;;;1.50;;
67140;SDS011;54058;52.010;5.546;2023-07-29T12:24:45;1.77;;;1.67;;
67140;SDS011;54058;52.010;5.546;2023-07-29T12:27:11;2.17;;;1.37;;
67140;SDS011;54058;52.010;5.546;2023-07-29T12:29:41;1.38;;;1.27;;
67140;SDS011;54058;52.010;5.546;2023-07-29T12:32:08;1.60;;;1.50;;
67140;SDS011;54058;52.010;5.546;2023-07-29T12:34:35;2.35;;;1.30;;
67140;SDS011;54058;52.010;5.546;2023-07-29T12:37:03;3.45;;;1.17;;
67140;SDS011;54058;52.010;5.546;2023-07-29T12:39:30;1.10;;;1.00;;
67140;SDS011;54058;52.010;5.546;2023-07-29T12:42:00;1.00;;;1.00;;
67140;SDS011;54058;52.010;5.546;2023-07-29T12:44:28;2.40;;;1.20;;
67140;SDS011;54058;52.010;5.546;2023-07-29T12:46:59;3.13;;;1.17;;
67140;SDS011;54058;52.010;5.546;2023-07-29T12:49:25;1.30;;;1.20;;
67140;SDS011;54058;52.010;5.546;2023-07-29T12:51:53;1.33;;;1.00;;
67140;SDS011;54058;52.010;5.546;2023-07-29T12:54:19;1.13;;;1.03;;
67140;SDS011;54058;52.010;5.546;2023-07-29T12:56:44;2.33;;;1.27;;
67140;SDS011;54058;52.010;5.546;2023-07-29T12:59:10;0.90;;;0.90;;
67140;SDS011;54058;52.010;5.546;2023-07-29T13:01:36;2.63;;;1.10;;
67140;SDS011;54058;52.010;5.546;2023-07-29T13:04:01;1.17;;;1.07;;
67140;SDS011;54058;52.010;5.546;2023-07-29T13:06:27;2.93;;;1.00;;
67140;SDS011;54058;52.010;5.546;2023-07-29T13:08:52;3.10;;;1.10;;
67140;SDS011;54058;52.010;5.546;2023-07-29T13:11:18;2.07;;;1.30;;
67140;SDS011;54058;52.010;5.546;2023-07-29T13:13:44;0.87;;;0.80;;
67140;SDS011;54058;52.010;5.546;2023-07-29T13:16:10;1.30;;;1.20;;
67140;SDS011;54058;52.010;5.546;2023-07-29T13:18:37;15.05;;;1.75;;
67140;SDS011;54058;52.010;5.546;2023-07-29T13:21:03;2.93;;;1.77;;
67140;SDS011;54058;52.010;5.546;2023-07-29T13:23:28;2.50;;;1.33;;
67140;SDS011;54058;52.010;5.546;2023-07-29T13:25:55;1.88;;;1.13;;
67140;SDS011;54058;52.010;5.546;2023-07-29T13:28:21;1.65;;;1.40;;
67140;SDS011;54058;52.010;5.546;2023-07-29T13:30:46;1.30;;;1.20;;
67140;SDS011;54058;52.010;5.546;2023-07-29T13:33:12;1.60;;;1.50;;
67140;SDS011;54058;52.010;5.546;2023-07-29T13:35:38;1.67;;;1.57;;
67140;SDS011;54058;52.010;5.546;2023-07-29T13:38:03;2.90;;;1.90;;
67140;SDS011;54058;52.010;5.546;2023-07-29T13:40:29;5.20;;;2.67;;
67140;SDS011;54058;52.010;5.546;2023-07-29T13:42:55;3.90;;;2.17;;
67140;SDS011;54058;52.010;5.546;2023-07-29T13:45:21;3.97;;;2.07;;
67140;SDS011;54058;52.010;5.546;2023-07-29T13:47:47;3.33;;;1.95;;
67140;SDS011;54058;52.010;5.546;2023-07-29T13:52:39;1.92;;;1.65;;
67140;SDS011;54058;52.010;5.546;2023-07-29T13:55:04;1.50;;;1.40;;
67140;SDS011;54058;52.010;5.546;2023-07-29T13:57:31;2.63;;;1.67;;
67140;SDS011;54058;52.010;5.546;2023-07-29T13:59:57;2.03;;;1.60;;
67140;SDS011;54058;52.010;5.546;2023-07-29T14:02:23;4.05;;;1.83;;
67140;SDS011;54058;52.010;5.546;2023-07-29T14:04:48;2.80;;;1.73;;
67140;SDS011;54058;52.010;5.546;2023-07-29T14:07:14;1.60;;;1.50;;
67140;SDS011;54058;52.010;5.546;2023-07-29T14:09:40;1.93;;;1.83;;
67140;SDS011;54058;52.010;5.546;2023-07-29T14:12:07;3.38;;;2.05;;
67140;SDS011;54058;52.010;5.546;2023-07-29T14:14:37;2.05;;;1.95;;
67140;SDS011;54058;52.010;5.546;2023-07-29T14:17:03;1.98;;;1.80;;
67140;SDS011;54058;52.010;5.546;2023-07-29T14:19:29;2.25;;;1.80;;
67140;SDS011;54058;52.010;5.546;2023-07-29T14:21:55;1.77;;;1.67;;
67140;SDS011;54058;52.010;5.546;2023-07-29T14:24:20;2.13;;;1.80;;
67140;SDS011;54058;52.010;5.546;2023-07-29T14:26:47;2.78;;;1.80;;
67140;SDS011;54058;52.010;5.546;2023-07-29T14:29:12;4.27;;;1.80;;
67140;SDS011;54058;52.010;5.546;2023-07-29T14:31:38;1.93;;;1.67;;
67140;SDS011;54058;52.010;5.546;2023-07-29T14:34:03;1.70;;;1.60;;
67140;SDS011;54058;52.010;5.546;2023-07-29T14:36:29;2.03;;;1.50;;
67140;SDS011;54058;52.010;5.546;2023-07-29T14:38:55;3.50;;;1.70;;
67140;SDS011;54058;52.010;5.546;2023-07-29T14:41:20;1.53;;;1.43;;
67140;SDS011;54058;52.010;5.546;2023-07-29T14:43:46;1.70;;;1.40;;
67140;SDS011;54058;52.010;5.546;2023-07-29T14:46:12;1.37;;;1.23;;
67140;SDS011;54058;52.010;5.546;2023-07-29T14:48:37;2.30;;;1.57;;
67140;SDS011;54058;52.010;5.546;2023-07-29T14:51:03;3.17;;;1.67;;
67140;SDS011;54058;52.010;5.546;2023-07-29T14:53:28;2.47;;;1.40;;
67140;SDS011;54058;52.010;5.546;2023-07-29T14:55:54;1.10;;;1.10;;
67140;SDS011;54058;52.010;5.546;2023-07-29T14:58:20;1.83;;;1.50;;
67140;SDS011;54058;52.010;5.546;2023-07-29T15:00:46;3.63;;;1.73;;
67140;SDS011;54058;52.010;5.546;2023-07-29T15:03:11;2.57;;;1.20;;
67140;SDS011;54058;52.010;5.546;2023-07-29T15:05:40;1.93;;;1.47;;
67140;SDS011;54058;52.010;5.546;2023-07-29T15:08:06;1.83;;;1.38;;
67140;SDS011;54058;52.010;5.546;2023-07-29T15:10:31;1.20;;;1.20;;
67140;SDS011;54058;52.010;5.546;2023-07-29T15:12:57;1.97;;;1.27;;
67140;SDS011;54058;52.010;5.546;2023-07-29T15:15:22;1.60;;;1.30;;